sensor_id;sensor_type;location;lat;lon;timestamp;P1;durP1;ratioP1;P2;durP2;ratioP2
18661;SDS011;61528;49.456;11.098;2022-12-05T00:02:14;27.10;;;16.93;;
18661;SDS011;61528;49.456;11.098;2022-12-05T00:04:41;24.47;;;16.23;;
18661;SDS011;61528;49.456;11.098;2022-12-05T00:07:08;25.83;;;17.23;;
18661;SDS011;61528;49.456;11.098;2022-12-05T00:09:34;25.37;;;16.37;;
18661;SDS011;61528;49.456;11.098;2022-12-05T00:12:00;24.53;;;16.30;;
18661;SDS011;61528;49.456;11.098;2022-12-05T00:14:26;24.50;;;16.43;;
18661;SDS011;61528;49.456;11.098;2022-12-05T00:16:52;23.83;;;15.67;;
18661;SDS011;61528;49.456;11.098;2022-12-05T00:19:19;24.13;;;15.33;;
18661;SDS011;61528;49.456;11.098;2022-12-05T00:21:45;21.83;;;15.37;;
18661;SDS011;61528;49.456;11.098;2022-12-05T00:24:13;23.93;;;15.87;;
18661;SDS011;61528;49.456;11.098;2022-12-05T00:26:40;25.97;;;16.63;;
18661;SDS011;61528;49.456;11.098;2022-12-05T00:29:06;26.63;;;16.20;;
18661;SDS011;61528;49.456;11.098;2022-12-05T00:31:33;28.17;;;16.53;;
18661;SDS011;61528;49.456;11.098;2022-12-05T00:34:00;24.73;;;15.53;;
18661;SDS011;61528;49.456;11.098;2022-12-05T00:36:27;27.53;;;17.27;;
18661;SDS011;61528;49.456;11.098;2022-12-05T00:38:53;25.17;;;16.83;;
18661;SDS011;61528;49.456;11.098;2022-12-05T00:41:21;26.27;;;16.20;;
18661;SDS011;61528;49.456;11.098;2022-12-05T00:43:48;26.40;;;17.10;;
18661;SDS011;61528;49.456;11.098;2022-12-05T00:46:16;24.67;;;16.17;;
18661;SDS011;61528;49.456;11.098;2022-12-05T00:48:43;26.73;;;16.77;;
18661;SDS011;61528;49.456;11.098;2022-12-05T00:53:35;26.73;;;17.00;;
18661;SDS011;61528;49.456;11.098;2022-12-05T00:56:06;27.10;;;16.13;;
18661;SDS011;61528;49.456;11.098;2022-12-05T00:58:32;26.97;;;16.77;;
18661;SDS011;61528;49.456;11.098;2022-12-05T01:01:09;29.93;;;17.17;;
18661;SDS011;61528;49.456;11.098;2022-12-05T01:03:36;28.07;;;17.17;;
18661;SDS011;61528;49.456;11.098;2022-12-05T01:06:02;26.47;;;16.67;;
18661;SDS011;61528;49.456;11.098;2022-12-05T01:08:30;28.70;;;17.67;;
18661;SDS011;61528;49.456;11.098;2022-12-05T01:10:56;23.90;;;16.07;;
18661;SDS011;61528;49.456;11.098;2022-12-05T01:13:23;25.33;;;16.23;;
18661;SDS011;61528;49.456;11.098;2022-12-05T01:15:50;28.03;;;16.53;;
18661;SDS011;61528;49.456;11.098;2022-12-05T01:18:16;31.33;;;17.83;;
18661;SDS011;61528;49.456;11.098;2022-12-05T01:20:43;35.73;;;21.50;;
18661;SDS011;61528;49.456;11.098;2022-12-05T01:23:10;30.43;;;19.67;;
18661;SDS011;61528;49.456;11.098;2022-12-05T01:25:40;32.10;;;19.53;;
18661;SDS011;61528;49.456;11.098;2022-12-05T01:28:07;32.77;;;19.93;;
18661;SDS011;61528;49.456;11.098;2022-12-05T01:30:36;34.80;;;18.53;;
18661;SDS011;61528;49.456;11.098;2022-12-05T01:33:03;30.17;;;19.20;;
18661;SDS011;61528;49.456;11.098;2022-12-05T01:35:33;34.67;;;19.73;;
18661;SDS011;61528;49.456;11.098;2022-12-05T01:38:00;30.13;;;18.47;;
18661;SDS011;61528;49.456;11.098;2022-12-05T01:40:26;34.07;;;19.87;;
18661;SDS011;61528;49.456;11.098;2022-12-05T01:42:52;32.77;;;20.03;;
18661;SDS011;61528;49.456;11.098;2022-12-05T01:45:35;33.60;;;19.93;;
18661;SDS011;61528;49.456;11.098;2022-12-05T01:48:04;34.97;;;20.53;;
18661;SDS011;61528;49.456;11.098;2022-12-05T01:50:31;37.40;;;20.70;;
18661;SDS011;61528;49.456;11.098;2022-12-05T01:52:58;34.10;;;21.07;;
18661;SDS011;61528;49.456;11.098;2022-12-05T01:55:24;35.27;;;19.57;;
18661;SDS011;61528;49.456;11.098;2022-12-05T01:57:51;36.63;;;20.60;;
18661;SDS011;61528;49.456;11.098;2022-12-05T02:00:18;36.83;;;21.67;;
18661;SDS011;61528;49.456;11.098;2022-12-05T02:02:48;39.37;;;21.73;;
18661;SDS011;61528;49.456;11.098;2022-12-05T02:05:32;33.50;;;20.17;;
18661;SDS011;61528;49.456;11.098;2022-12-05T02:08:00;35.90;;;20.83;;
18661;SDS011;61528;49.456;11.098;2022-12-05T02:10:28;39.93;;;20.67;;
18661;SDS011;61528;49.456;11.098;2022-12-05T02:12:55;35.87;;;20.30;;
18661;SDS011;61528;49.456;11.098;2022-12-05T02:18:07;32.93;;;20.17;;
18661;SDS011;61528;49.456;11.098;2022-12-05T02:28:21;35.03;;;20.50;;
18661;SDS011;61528;49.456;11.098;2022-12-05T02:30:55;30.77;;;18.73;;
18661;SDS011;61528;49.456;11.098;2022-12-05T02:33:28;30.87;;;18.97;;
18661;SDS011;61528;49.456;11.098;2022-12-05T02:36:14;31.23;;;19.40;;
18661;SDS011;61528;49.456;11.098;2022-12-05T02:38:59;31.93;;;18.23;;
18661;SDS011;61528;49.456;11.098;2022-12-05T02:41:31;30.63;;;17.37;;
18661;SDS011;61528;49.456;11.098;2022-12-05T02:44:06;26.77;;;17.30;;
18661;SDS011;61528;49.456;11.098;2022-12-05T02:46:36;31.03;;;16.87;;
18661;SDS011;61528;49.456;11.098;2022-12-05T02:49:07;26.17;;;16.87;;
18661;SDS011;61528;49.456;11.098;2022-12-05T02:51:37;30.10;;;18.77;;
18661;SDS011;61528;49.456;11.098;2022-12-05T02:54:04;24.90;;;15.80;;
18661;SDS011;61528;49.456;11.098;2022-12-05T02:56:33;26.90;;;15.77;;
18661;SDS011;61528;49.456;11.098;2022-12-05T02:59:00;27.80;;;15.97;;
18661;SDS011;61528;49.456;11.098;2022-12-05T03:01:27;23.63;;;14.90;;
18661;SDS011;61528;49.456;11.098;2022-12-05T03:03:54;24.10;;;14.40;;
18661;SDS011;61528;49.456;11.098;2022-12-05T03:09:00;23.07;;;14.07;;
18661;SDS011;61528;49.456;11.098;2022-12-05T03:11:33;21.80;;;13.97;;
18661;SDS011;61528;49.456;11.098;2022-12-05T03:14:02;20.77;;;13.73;;
18661;SDS011;61528;49.456;11.098;2022-12-05T03:16:39;21.47;;;14.07;;
18661;SDS011;61528;49.456;11.098;2022-12-05T03:24:54;18.80;;;12.77;;
18661;SDS011;61528;49.456;11.098;2022-12-05T03:27:24;18.77;;;12.10;;
18661;SDS011;61528;49.456;11.098;2022-12-05T03:46:37;15.90;;;10.53;;
18661;SDS011;61528;49.456;11.098;2022-12-05T03:51:27;15.97;;;11.93;;
18661;SDS011;61528;49.456;11.098;2022-12-05T03:53:58;13.10;;;10.60;;
18661;SDS011;61528;49.456;11.098;2022-12-05T03:56:29;13.83;;;10.20;;
18661;SDS011;61528;49.456;11.098;2022-12-05T03:59:19;14.93;;;10.73;;
18661;SDS011;61528;49.456;11.098;2022-12-05T04:01:43;12.67;;;9.43;;
18661;SDS011;61528;49.456;11.098;2022-12-05T04:04:16;14.07;;;10.07;;
18661;SDS011;61528;49.456;11.098;2022-12-05T04:06:44;13.57;;;9.93;;
18661;SDS011;61528;49.456;11.098;2022-12-05T04:09:14;14.33;;;9.77;;
18661;SDS011;61528;49.456;11.098;2022-12-05T04:11:44;13.23;;;9.67;;
18661;SDS011;61528;49.456;11.098;2022-12-05T04:14:17;13.27;;;10.17;;
18661;SDS011;61528;49.456;11.098;2022-12-05T04:16:49;13.47;;;9.90;;
18661;SDS011;61528;49.456;11.098;2022-12-05T04:22:27;12.83;;;9.63;;
18661;SDS011;61528;49.456;11.098;2022-12-05T04:24:55;15.03;;;9.00;;
18661;SDS011;61528;49.456;11.098;2022-12-05T04:27:52;12.83;;;9.03;;
18661;SDS011;61528;49.456;11.098;2022-12-05T04:30:23;13.00;;;8.70;;
18661;SDS011;61528;49.456;11.098;2022-12-05T04:32:52;14.57;;;9.53;;
18661;SDS011;61528;49.456;11.098;2022-12-05T04:36:03;12.83;;;9.27;;
18661;SDS011;61528;49.456;11.098;2022-12-05T04:38:11;12.57;;;8.77;;
18661;SDS011;61528;49.456;11.098;2022-12-05T04:40:40;10.07;;;7.93;;
18661;SDS011;61528;49.456;11.098;2022-12-05T04:43:07;12.03;;;8.53;;
18661;SDS011;61528;49.456;11.098;2022-12-05T04:45:34;10.87;;;8.30;;
18661;SDS011;61528;49.456;11.098;2022-12-05T04:48:03;10.80;;;7.50;;
18661;SDS011;61528;49.456;11.098;2022-12-05T04:50:32;12.27;;;7.93;;
18661;SDS011;61528;49.456;11.098;2022-12-05T04:52:59;10.40;;;7.50;;
18661;SDS011;61528;49.456;11.098;2022-12-05T04:58:18;12.00;;;6.97;;
18661;SDS011;61528;49.456;11.098;2022-12-05T05:03:35;9.30;;;5.87;;
18661;SDS011;61528;49.456;11.098;2022-12-05T05:06:03;11.00;;;6.50;;
18661;SDS011;61528;49.456;11.098;2022-12-05T05:08:29;12.10;;;6.90;;
18661;SDS011;61528;49.456;11.098;2022-12-05T05:13:34;9.47;;;6.60;;
18661;SDS011;61528;49.456;11.098;2022-12-05T05:16:01;9.47;;;6.43;;
18661;SDS011;61528;49.456;11.098;2022-12-05T05:18:27;8.30;;;6.13;;
18661;SDS011;61528;49.456;11.098;2022-12-05T05:20:53;10.07;;;6.50;;
18661;SDS011;61528;49.456;11.098;2022-12-05T05:23:19;9.93;;;6.30;;
18661;SDS011;61528;49.456;11.098;2022-12-05T05:25:50;7.60;;;5.97;;
18661;SDS011;61528;49.456;11.098;2022-12-05T05:28:17;14.25;;;9.27;;
18661;SDS011;61528;49.456;11.098;2022-12-05T05:30:45;12.93;;;9.13;;
18661;SDS011;61528;49.456;11.098;2022-12-05T05:33:12;9.27;;;6.57;;
18661;SDS011;61528;49.456;11.098;2022-12-05T05:35:39;8.17;;;5.50;;
18661;SDS011;61528;49.456;11.098;2022-12-05T05:38:06;8.10;;;5.70;;
18661;SDS011;61528;49.456;11.098;2022-12-05T05:40:34;9.10;;;6.73;;
18661;SDS011;61528;49.456;11.098;2022-12-05T05:43:01;7.07;;;5.63;;
18661;SDS011;61528;49.456;11.098;2022-12-05T05:45:28;7.33;;;5.33;;
18661;SDS011;61528;49.456;11.098;2022-12-05T05:50:42;9.57;;;5.67;;
18661;SDS011;61528;49.456;11.098;2022-12-05T05:53:08;7.17;;;5.57;;
18661;SDS011;61528;49.456;11.098;2022-12-05T05:55:38;7.23;;;5.57;;
18661;SDS011;61528;49.456;11.098;2022-12-05T05:58:06;8.60;;;5.97;;
18661;SDS011;61528;49.456;11.098;2022-12-05T06:00:34;10.90;;;6.93;;
18661;SDS011;61528;49.456;11.098;2022-12-05T06:03:01;11.57;;;6.97;;
18661;SDS011;61528;49.456;11.098;2022-12-05T06:05:27;11.63;;;7.03;;
18661;SDS011;61528;49.456;11.098;2022-12-05T06:07:55;13.20;;;7.90;;
18661;SDS011;61528;49.456;11.098;2022-12-05T06:10:21;14.33;;;8.50;;
18661;SDS011;61528;49.456;11.098;2022-12-05T06:12:47;16.83;;;8.80;;
18661;SDS011;61528;49.456;11.098;2022-12-05T06:15:14;14.50;;;7.97;;
18661;SDS011;61528;49.456;11.098;2022-12-05T06:17:40;14.50;;;8.47;;
18661;SDS011;61528;49.456;11.098;2022-12-05T06:20:06;14.93;;;8.83;;
18661;SDS011;61528;49.456;11.098;2022-12-05T06:22:34;17.80;;;9.57;;
18661;SDS011;61528;49.456;11.098;2022-12-05T06:25:00;18.03;;;9.43;;
18661;SDS011;61528;49.456;11.098;2022-12-05T06:27:28;19.10;;;9.63;;
18661;SDS011;61528;49.456;11.098;2022-12-05T06:29:55;17.97;;;9.63;;
18661;SDS011;61528;49.456;11.098;2022-12-05T06:32:21;13.60;;;8.90;;
18661;SDS011;61528;49.456;11.098;2022-12-05T06:34:49;19.13;;;10.17;;
18661;SDS011;61528;49.456;11.098;2022-12-05T06:37:15;19.73;;;9.83;;
18661;SDS011;61528;49.456;11.098;2022-12-05T06:39:43;18.23;;;10.37;;
18661;SDS011;61528;49.456;11.098;2022-12-05T06:42:09;19.90;;;10.20;;
18661;SDS011;61528;49.456;11.098;2022-12-05T06:44:37;19.87;;;10.50;;
18661;SDS011;61528;49.456;11.098;2022-12-05T06:47:03;20.03;;;10.90;;
18661;SDS011;61528;49.456;11.098;2022-12-05T06:49:31;20.40;;;10.67;;
18661;SDS011;61528;49.456;11.098;2022-12-05T06:52:00;18.40;;;10.03;;
18661;SDS011;61528;49.456;11.098;2022-12-05T06:54:27;16.00;;;9.70;;
18661;SDS011;61528;49.456;11.098;2022-12-05T06:56:53;20.17;;;11.00;;
18661;SDS011;61528;49.456;11.098;2022-12-05T06:59:20;18.50;;;10.40;;
18661;SDS011;61528;49.456;11.098;2022-12-05T07:01:46;17.63;;;9.63;;
18661;SDS011;61528;49.456;11.098;2022-12-05T07:04:14;16.83;;;9.73;;
18661;SDS011;61528;49.456;11.098;2022-12-05T07:06:41;18.37;;;9.70;;
18661;SDS011;61528;49.456;11.098;2022-12-05T07:09:08;17.80;;;8.77;;
18661;SDS011;61528;49.456;11.098;2022-12-05T07:11:35;17.90;;;9.17;;
18661;SDS011;61528;49.456;11.098;2022-12-05T07:14:02;18.30;;;9.50;;
18661;SDS011;61528;49.456;11.098;2022-12-05T07:16:29;17.67;;;9.43;;
18661;SDS011;61528;49.456;11.098;2022-12-05T07:18:56;18.47;;;10.20;;
18661;SDS011;61528;49.456;11.098;2022-12-05T07:21:22;18.80;;;10.07;;
18661;SDS011;61528;49.456;11.098;2022-12-05T07:23:49;19.00;;;10.43;;
18661;SDS011;61528;49.456;11.098;2022-12-05T07:26:17;20.77;;;10.90;;
18661;SDS011;61528;49.456;11.098;2022-12-05T07:28:44;19.67;;;10.60;;
18661;SDS011;61528;49.456;11.098;2022-12-05T07:31:14;19.63;;;11.07;;
18661;SDS011;61528;49.456;11.098;2022-12-05T07:33:41;19.40;;;10.73;;
18661;SDS011;61528;49.456;11.098;2022-12-05T07:36:12;19.60;;;10.93;;
18661;SDS011;61528;49.456;11.098;2022-12-05T07:38:39;18.03;;;10.63;;
18661;SDS011;61528;49.456;11.098;2022-12-05T07:41:10;19.57;;;10.50;;
18661;SDS011;61528;49.456;11.098;2022-12-05T07:43:36;19.33;;;10.37;;
18661;SDS011;61528;49.456;11.098;2022-12-05T07:46:03;20.67;;;11.57;;
18661;SDS011;61528;49.456;11.098;2022-12-05T07:48:30;18.27;;;10.53;;
18661;SDS011;61528;49.456;11.098;2022-12-05T07:51:03;19.90;;;10.97;;
18661;SDS011;61528;49.456;11.098;2022-12-05T07:53:30;20.97;;;11.57;;
18661;SDS011;61528;49.456;11.098;2022-12-05T07:56:00;19.93;;;10.90;;
18661;SDS011;61528;49.456;11.098;2022-12-05T07:58:27;20.13;;;10.80;;
18661;SDS011;61528;49.456;11.098;2022-12-05T08:00:54;19.80;;;11.17;;
18661;SDS011;61528;49.456;11.098;2022-12-05T08:03:20;18.63;;;10.27;;
18661;SDS011;61528;49.456;11.098;2022-12-05T08:05:47;18.07;;;10.67;;
18661;SDS011;61528;49.456;11.098;2022-12-05T08:08:13;19.67;;;10.77;;
18661;SDS011;61528;49.456;11.098;2022-12-05T08:10:40;19.17;;;11.13;;
18661;SDS011;61528;49.456;11.098;2022-12-05T08:13:06;19.03;;;10.70;;
18661;SDS011;61528;49.456;11.098;2022-12-05T08:15:35;21.37;;;11.63;;
18661;SDS011;61528;49.456;11.098;2022-12-05T08:18:02;19.67;;;11.03;;
18661;SDS011;61528;49.456;11.098;2022-12-05T08:20:28;22.10;;;11.37;;
18661;SDS011;61528;49.456;11.098;2022-12-05T08:22:54;19.90;;;11.27;;
18661;SDS011;61528;49.456;11.098;2022-12-05T08:25:21;20.80;;;10.37;;
18661;SDS011;61528;49.456;11.098;2022-12-05T08:27:47;20.17;;;11.97;;
18661;SDS011;61528;49.456;11.098;2022-12-05T08:30:14;19.70;;;11.03;;
18661;SDS011;61528;49.456;11.098;2022-12-05T08:35:26;21.63;;;10.90;;
18661;SDS011;61528;49.456;11.098;2022-12-05T08:37:53;23.77;;;11.80;;
18661;SDS011;61528;49.456;11.098;2022-12-05T08:43:04;23.67;;;12.00;;
18661;SDS011;61528;49.456;11.098;2022-12-05T08:45:30;19.63;;;11.70;;
18661;SDS011;61528;49.456;11.098;2022-12-05T08:47:57;19.60;;;11.27;;
18661;SDS011;61528;49.456;11.098;2022-12-05T08:50:24;20.80;;;11.73;;
18661;SDS011;61528;49.456;11.098;2022-12-05T08:52:51;21.97;;;11.60;;
18661;SDS011;61528;49.456;11.098;2022-12-05T08:58:05;22.40;;;12.20;;
18661;SDS011;61528;49.456;11.098;2022-12-05T09:03:18;22.67;;;12.57;;
18661;SDS011;61528;49.456;11.098;2022-12-05T09:05:45;20.27;;;11.13;;
18661;SDS011;61528;49.456;11.098;2022-12-05T09:08:11;22.83;;;12.20;;
18661;SDS011;61528;49.456;11.098;2022-12-05T09:10:38;20.13;;;11.37;;
18661;SDS011;61528;49.456;11.098;2022-12-05T09:13:04;22.77;;;11.87;;
18661;SDS011;61528;49.456;11.098;2022-12-05T09:15:31;21.20;;;12.33;;
18661;SDS011;61528;49.456;11.098;2022-12-05T09:17:57;22.37;;;12.37;;
18661;SDS011;61528;49.456;11.098;2022-12-05T09:20:23;20.90;;;11.57;;
18661;SDS011;61528;49.456;11.098;2022-12-05T09:22:50;23.77;;;12.70;;
18661;SDS011;61528;49.456;11.098;2022-12-05T09:25:16;24.10;;;13.30;;
18661;SDS011;61528;49.456;11.098;2022-12-05T09:27:44;22.03;;;12.60;;
18661;SDS011;61528;49.456;11.098;2022-12-05T09:30:11;22.50;;;12.37;;
18661;SDS011;61528;49.456;11.098;2022-12-05T09:32:38;22.00;;;11.67;;
18661;SDS011;61528;49.456;11.098;2022-12-05T09:35:04;21.97;;;11.77;;
18661;SDS011;61528;49.456;11.098;2022-12-05T09:37:31;22.63;;;11.77;;
18661;SDS011;61528;49.456;11.098;2022-12-05T09:39:57;23.83;;;11.77;;
18661;SDS011;61528;49.456;11.098;2022-12-05T09:45:17;21.83;;;11.70;;
18661;SDS011;61528;49.456;11.098;2022-12-05T09:50:20;26.10;;;12.63;;
18661;SDS011;61528;49.456;11.098;2022-12-05T09:52:52;23.60;;;12.77;;
18661;SDS011;61528;49.456;11.098;2022-12-05T09:55:19;21.30;;;11.90;;
18661;SDS011;61528;49.456;11.098;2022-12-05T09:57:50;20.13;;;12.20;;
18661;SDS011;61528;49.456;11.098;2022-12-05T10:00:17;22.90;;;12.03;;
18661;SDS011;61528;49.456;11.098;2022-12-05T10:02:46;20.53;;;12.57;;
18661;SDS011;61528;49.456;11.098;2022-12-05T10:07:43;20.70;;;11.97;;
18661;SDS011;61528;49.456;11.098;2022-12-05T10:15:31;21.73;;;11.87;;
18661;SDS011;61528;49.456;11.098;2022-12-05T10:18:12;19.13;;;11.30;;
18661;SDS011;61528;49.456;11.098;2022-12-05T10:20:47;22.20;;;11.87;;
18661;SDS011;61528;49.456;11.098;2022-12-05T10:23:20;19.60;;;11.27;;
18661;SDS011;61528;49.456;11.098;2022-12-05T10:25:50;19.17;;;11.27;;
18661;SDS011;61528;49.456;11.098;2022-12-05T10:28:22;21.37;;;11.87;;
18661;SDS011;61528;49.456;11.098;2022-12-05T10:30:52;20.67;;;11.50;;
18661;SDS011;61528;49.456;11.098;2022-12-05T10:33:21;20.00;;;11.20;;
18661;SDS011;61528;49.456;11.098;2022-12-05T10:35:47;19.20;;;11.63;;
18661;SDS011;61528;49.456;11.098;2022-12-05T10:38:30;20.37;;;12.07;;
18661;SDS011;61528;49.456;11.098;2022-12-05T10:41:00;22.63;;;11.77;;
18661;SDS011;61528;49.456;11.098;2022-12-05T10:43:29;21.53;;;11.53;;
18661;SDS011;61528;49.456;11.098;2022-12-05T10:45:56;18.03;;;11.07;;
18661;SDS011;61528;49.456;11.098;2022-12-05T10:48:22;20.50;;;11.90;;
18661;SDS011;61528;49.456;11.098;2022-12-05T10:50:50;19.37;;;11.67;;
18661;SDS011;61528;49.456;11.098;2022-12-05T10:53:26;18.70;;;11.07;;
18661;SDS011;61528;49.456;11.098;2022-12-05T10:55:52;19.27;;;11.53;;
18661;SDS011;61528;49.456;11.098;2022-12-05T10:58:19;19.50;;;10.90;;
18661;SDS011;61528;49.456;11.098;2022-12-05T11:00:52;17.67;;;10.73;;
18661;SDS011;61528;49.456;11.098;2022-12-05T11:03:29;20.67;;;11.40;;
18661;SDS011;61528;49.456;11.098;2022-12-05T11:05:57;17.47;;;10.83;;
18661;SDS011;61528;49.456;11.098;2022-12-05T11:08:33;17.80;;;11.03;;
18661;SDS011;61528;49.456;11.098;2022-12-05T11:11:04;18.40;;;10.87;;
18661;SDS011;61528;49.456;11.098;2022-12-05T11:13:31;21.40;;;11.80;;
18661;SDS011;61528;49.456;11.098;2022-12-05T11:15:58;21.33;;;11.03;;
18661;SDS011;61528;49.456;11.098;2022-12-05T11:18:29;16.93;;;10.60;;
18661;SDS011;61528;49.456;11.098;2022-12-05T11:21:07;19.53;;;11.33;;
18661;SDS011;61528;49.456;11.098;2022-12-05T11:23:33;18.93;;;11.53;;
18661;SDS011;61528;49.456;11.098;2022-12-05T11:25:59;18.60;;;10.97;;
18661;SDS011;61528;49.456;11.098;2022-12-05T11:28:30;19.80;;;11.90;;
18661;SDS011;61528;49.456;11.098;2022-12-05T11:30:58;18.93;;;10.93;;
18661;SDS011;61528;49.456;11.098;2022-12-05T11:33:25;20.83;;;12.13;;
18661;SDS011;61528;49.456;11.098;2022-12-05T11:35:52;19.63;;;12.07;;
18661;SDS011;61528;49.456;11.098;2022-12-05T11:38:20;18.27;;;11.27;;
18661;SDS011;61528;49.456;11.098;2022-12-05T11:40:52;19.70;;;11.40;;
18661;SDS011;61528;49.456;11.098;2022-12-05T11:43:42;18.37;;;10.87;;
18661;SDS011;61528;49.456;11.098;2022-12-05T11:48:50;21.90;;;11.57;;
18661;SDS011;61528;49.456;11.098;2022-12-05T11:51:22;17.47;;;10.53;;
18661;SDS011;61528;49.456;11.098;2022-12-05T11:53:59;18.10;;;10.77;;
18661;SDS011;61528;49.456;11.098;2022-12-05T11:56:37;17.40;;;10.57;;
18661;SDS011;61528;49.456;11.098;2022-12-05T11:59:20;18.10;;;10.93;;
18661;SDS011;61528;49.456;11.098;2022-12-05T12:01:53;16.53;;;9.97;;
18661;SDS011;61528;49.456;11.098;2022-12-05T12:17:40;18.97;;;10.93;;
18661;SDS011;61528;49.456;11.098;2022-12-05T12:28:02;19.53;;;11.47;;
18661;SDS011;61528;49.456;11.098;2022-12-05T12:33:26;19.70;;;11.60;;
18661;SDS011;61528;49.456;11.098;2022-12-05T12:45:58;17.90;;;10.70;;
18661;SDS011;61528;49.456;11.098;2022-12-05T12:48:52;18.60;;;10.27;;
18661;SDS011;61528;49.456;11.098;2022-12-05T12:51:21;18.20;;;10.13;;
18661;SDS011;61528;49.456;11.098;2022-12-05T13:04:04;17.87;;;10.40;;
18661;SDS011;61528;49.456;11.098;2022-12-05T13:09:33;19.17;;;10.23;;
18661;SDS011;61528;49.456;11.098;2022-12-05T13:11:52;14.43;;;9.90;;
18661;SDS011;61528;49.456;11.098;2022-12-05T13:14:20;18.03;;;10.67;;
18661;SDS011;61528;49.456;11.098;2022-12-05T13:16:49;17.20;;;9.97;;
18661;SDS011;61528;49.456;11.098;2022-12-05T13:19:36;16.53;;;9.73;;
18661;SDS011;61528;49.456;11.098;2022-12-05T13:22:05;13.40;;;8.93;;
18661;SDS011;61528;49.456;11.098;2022-12-05T13:24:33;14.97;;;10.27;;
18661;SDS011;61528;49.456;11.098;2022-12-05T13:27:00;17.27;;;9.57;;
18661;SDS011;61528;49.456;11.098;2022-12-05T13:29:49;16.30;;;10.07;;
18661;SDS011;61528;49.456;11.098;2022-12-05T13:32:24;15.43;;;9.10;;
18661;SDS011;61528;49.456;11.098;2022-12-05T13:34:54;17.70;;;10.30;;
18661;SDS011;61528;49.456;11.098;2022-12-05T13:37:25;16.67;;;10.23;;
18661;SDS011;61528;49.456;11.098;2022-12-05T13:40:27;18.13;;;10.53;;
18661;SDS011;61528;49.456;11.098;2022-12-05T13:43:13;17.47;;;10.13;;
18661;SDS011;61528;49.456;11.098;2022-12-05T13:45:40;15.90;;;10.43;;
18661;SDS011;61528;49.456;11.098;2022-12-05T13:48:21;17.43;;;9.93;;
18661;SDS011;61528;49.456;11.098;2022-12-05T13:51:09;20.17;;;11.50;;
18661;SDS011;61528;49.456;11.098;2022-12-05T13:53:40;16.73;;;10.27;;
18661;SDS011;61528;49.456;11.098;2022-12-05T14:17:14;19.77;;;11.43;;
18661;SDS011;61528;49.456;11.098;2022-12-05T14:19:47;16.27;;;10.70;;
18661;SDS011;61528;49.456;11.098;2022-12-05T14:22:25;19.50;;;11.50;;
18661;SDS011;61528;49.456;11.098;2022-12-05T14:30:04;16.53;;;10.30;;
18661;SDS011;61528;49.456;11.098;2022-12-05T14:32:36;16.33;;;10.83;;
18661;SDS011;61528;49.456;11.098;2022-12-05T14:43:18;17.40;;;11.07;;
18661;SDS011;61528;49.456;11.098;2022-12-05T14:50:47;18.03;;;10.33;;
18661;SDS011;61528;49.456;11.098;2022-12-05T14:55:56;17.00;;;10.00;;
18661;SDS011;61528;49.456;11.098;2022-12-05T14:58:29;16.40;;;9.73;;
18661;SDS011;61528;49.456;11.098;2022-12-05T15:00:57;19.40;;;10.37;;
18661;SDS011;61528;49.456;11.098;2022-12-05T15:03:27;19.37;;;10.87;;
18661;SDS011;61528;49.456;11.098;2022-12-05T15:05:55;17.73;;;10.60;;
18661;SDS011;61528;49.456;11.098;2022-12-05T15:08:21;18.53;;;10.77;;
18661;SDS011;61528;49.456;11.098;2022-12-05T15:10:48;19.33;;;10.57;;
18661;SDS011;61528;49.456;11.098;2022-12-05T15:13:16;16.30;;;10.70;;
18661;SDS011;61528;49.456;11.098;2022-12-05T15:16:16;16.33;;;10.73;;
18661;SDS011;61528;49.456;11.098;2022-12-05T15:21:04;18.40;;;10.80;;
18661;SDS011;61528;49.456;11.098;2022-12-05T15:23:42;17.93;;;10.83;;
18661;SDS011;61528;49.456;11.098;2022-12-05T15:26:55;18.27;;;11.00;;
18661;SDS011;61528;49.456;11.098;2022-12-05T15:29:40;18.03;;;11.40;;
18661;SDS011;61528;49.456;11.098;2022-12-05T15:37:03;17.03;;;10.97;;
18661;SDS011;61528;49.456;11.098;2022-12-05T15:39:55;18.43;;;11.43;;
18661;SDS011;61528;49.456;11.098;2022-12-05T15:42:23;19.93;;;11.53;;
18661;SDS011;61528;49.456;11.098;2022-12-05T15:44:50;20.00;;;11.83;;
18661;SDS011;61528;49.456;11.098;2022-12-05T15:47:25;20.17;;;11.77;;
18661;SDS011;61528;49.456;11.098;2022-12-05T15:49:52;20.13;;;12.33;;
18661;SDS011;61528;49.456;11.098;2022-12-05T15:52:28;19.00;;;11.53;;
18661;SDS011;61528;49.456;11.098;2022-12-05T15:55:00;17.90;;;11.27;;
18661;SDS011;61528;49.456;11.098;2022-12-05T15:57:35;18.50;;;12.10;;
18661;SDS011;61528;49.456;11.098;2022-12-05T16:00:04;18.87;;;11.23;;
18661;SDS011;61528;49.456;11.098;2022-12-05T16:04:57;18.13;;;11.10;;
18661;SDS011;61528;49.456;11.098;2022-12-05T16:07:26;18.37;;;11.33;;
18661;SDS011;61528;49.456;11.098;2022-12-05T16:09:54;16.07;;;11.00;;
18661;SDS011;61528;49.456;11.098;2022-12-05T16:12:34;16.40;;;11.47;;
18661;SDS011;61528;49.456;11.098;2022-12-05T16:15:04;16.87;;;10.20;;
18661;SDS011;61528;49.456;11.098;2022-12-05T16:17:41;15.17;;;10.07;;
18661;SDS011;61528;49.456;11.098;2022-12-05T16:25:32;11.03;;;7.80;;
18661;SDS011;61528;49.456;11.098;2022-12-05T16:33:35;10.07;;;7.23;;
18661;SDS011;61528;49.456;11.098;2022-12-05T16:36:11;9.57;;;7.33;;
18661;SDS011;61528;49.456;11.098;2022-12-05T16:38:39;11.93;;;7.93;;
18661;SDS011;61528;49.456;11.098;2022-12-05T16:41:08;9.83;;;7.20;;
18661;SDS011;61528;49.456;11.098;2022-12-05T16:48:42;11.50;;;7.97;;
18661;SDS011;61528;49.456;11.098;2022-12-05T16:53:39;8.80;;;6.47;;
18661;SDS011;61528;49.456;11.098;2022-12-05T16:56:06;11.17;;;7.07;;
18661;SDS011;61528;49.456;11.098;2022-12-05T16:58:38;8.20;;;6.53;;
18661;SDS011;61528;49.456;11.098;2022-12-05T17:01:05;9.13;;;7.00;;
18661;SDS011;61528;49.456;11.098;2022-12-05T17:03:32;9.37;;;7.17;;
18661;SDS011;61528;49.456;11.098;2022-12-05T17:05:59;10.70;;;7.47;;
18661;SDS011;61528;49.456;11.098;2022-12-05T17:08:25;10.00;;;7.53;;
18661;SDS011;61528;49.456;11.098;2022-12-05T17:10:52;9.23;;;6.70;;
18661;SDS011;61528;49.456;11.098;2022-12-05T17:13:18;9.27;;;6.97;;
18661;SDS011;61528;49.456;11.098;2022-12-05T17:15:45;9.37;;;7.00;;
18661;SDS011;61528;49.456;11.098;2022-12-05T17:18:12;10.30;;;7.27;;
18661;SDS011;61528;49.456;11.098;2022-12-05T17:20:41;8.93;;;6.27;;
18661;SDS011;61528;49.456;11.098;2022-12-05T17:23:11;8.47;;;6.47;;
18661;SDS011;61528;49.456;11.098;2022-12-05T17:25:37;8.97;;;6.70;;
18661;SDS011;61528;49.456;11.098;2022-12-05T17:28:05;8.73;;;6.67;;
18661;SDS011;61528;49.456;11.098;2022-12-05T17:30:32;8.63;;;6.57;;
18661;SDS011;61528;49.456;11.098;2022-12-05T17:33:02;8.70;;;6.93;;
18661;SDS011;61528;49.456;11.098;2022-12-05T17:35:28;9.57;;;6.97;;
18661;SDS011;61528;49.456;11.098;2022-12-05T17:37:55;10.17;;;6.80;;
18661;SDS011;61528;49.456;11.098;2022-12-05T17:40:22;8.67;;;7.23;;
18661;SDS011;61528;49.456;11.098;2022-12-05T17:42:48;10.03;;;7.57;;
18661;SDS011;61528;49.456;11.098;2022-12-05T17:45:14;9.53;;;6.83;;
18661;SDS011;61528;49.456;11.098;2022-12-05T17:47:41;9.10;;;7.17;;